Time;durP1;ratioP1;P1;durP2;ratioP2;P2;SDS_P1;SDS_P2;PMS_P1;PMS_P2;Temp;Humidity;BMP_temperature;BMP_pressure;BME280_temperature;BME280_humidity;BME280_pressure;Samples;Min_cycle;Max_cycle;Signal;HPM_P1;HPM_P2
2021/12/16 00:04:09;;;;;;;13.43;11.48;;;12.80;79.10;;;;;;5027559;28;20116;-75
2021/12/16 00:09:29;;;;;;;13.13;11.20;;;12.70;78.90;;;;;;5028814;28;20402;-74
2021/12/16 00:29:01;;;;;;;14.00;12.35;;;12.70;78.90;;;;;;5028296;28;20513;-74
2021/12/16 00:31:31;;;;;;;14.93;12.00;;;12.70;79.50;;;;;;5028027;28;20037;-74
2021/12/16 00:34:01;;;;;;;17.42;13.30;;;12.70;79.00;;;;;;5027275;28;20055;-74
2021/12/16 00:36:35;;;;;;;15.18;12.20;;;12.70;79.00;;;;;;5010230;28;20029;-75
2021/12/16 00:39:09;;;;;;;14.88;12.30;;;12.70;79.00;;;;;;5010530;28;20029;-74
2021/12/16 00:41:36;;;;;;;14.10;12.15;;;12.70;79.00;;;;;;5010235;28;20029;-75
2021/12/16 00:49:45;;;;;;;14.65;12.98;;;12.70;79.10;;;;;;5027711;28;20556;-74
2021/12/16 00:55:12;;;;;;;14.75;12.63;;;12.60;78.90;;;;;;5026273;28;20037;-75
2021/12/16 00:57:38;;;;;;;15.05;12.75;;;12.60;78.80;;;;;;5026674;28;20044;-75
2021/12/16 01:00:08;;;;;;;15.27;13.18;;;12.70;79.00;;;;;;5026268;28;20078;-74
2021/12/16 01:34:23;;;;;;;16.90;13.43;;;12.50;78.80;;;;;;5015721;28;20045;-74
2021/12/16 01:49:29;;;;;;;12.93;11.65;;;12.40;78.60;;;;;;5025992;28;20128;-76
2021/12/16 01:52:11;;;;;;;13.77;11.93;;;12.50;78.90;;;;;;5025577;28;20087;-75
2021/12/16 01:54:50;;;;;;;13.40;12.00;;;12.40;78.70;;;;;;5025371;28;20107;-74
2021/12/16 01:57:28;;;;;;;14.13;12.18;;;12.40;78.60;;;;;;5025540;28;20048;-74
2021/12/16 02:00:03;;;;;;;15.02;12.80;;;12.40;78.70;;;;;;5026498;28;20068;-74
2021/12/16 02:02:51;;;;;;;14.63;13.13;;;12.40;78.70;;;;;;5027810;28;20489;-75
2021/12/16 02:08:26;;;;;;;15.02;13.32;;;12.40;78.70;;;;;;5027179;28;20030;-74
2021/12/16 02:32:43;;;;;;;13.98;11.93;;;12.30;78.60;;;;;;5015889;28;20041;-75
2021/12/16 02:35:26;;;;;;;13.60;12.20;;;12.30;78.70;;;;;;5025612;28;20370;-74
2021/12/16 02:37:52;;;;;;;12.57;11.27;;;12.30;78.60;;;;;;5023554;28;20470;-74
2021/12/16 02:40:19;;;;;;;15.20;12.57;;;12.30;78.60;;;;;;5025199;28;20068;-74
2021/12/16 02:42:57;;;;;;;14.43;12.60;;;12.30;78.60;;;;;;5026611;28;20108;-73
2021/12/16 02:51:08;;;;;;;13.88;12.40;;;12.30;78.60;;;;;;5028800;28;20053;-73
2021/12/16 02:53:36;;;;;;;15.32;13.25;;;12.30;78.60;;;;;;5030628;28;20045;-74
2021/12/16 02:56:04;;;;;;;15.02;12.80;;;12.30;78.60;;;;;;5029538;28;20392;-73
2021/12/16 02:58:31;;;;;;;13.27;11.88;;;12.30;78.60;;;;;;5011922;28;20507;-74
2021/12/16 03:01:13;;;;;;;13.45;12.15;;;12.30;78.70;;;;;;5028718;28;20063;-73
2021/12/16 03:03:40;;;;;;;14.65;11.88;;;12.30;78.70;;;;;;5010356;28;20045;-74
2021/12/16 03:06:10;;;;;;;16.65;12.63;;;12.30;79.10;;;;;;5027747;28;20048;-73
2021/12/16 03:08:37;;;;;;;15.52;12.18;;;12.20;78.50;;;;;;5027328;28;20029;-74
2021/12/16 03:11:35;;;;;;;13.52;10.88;;;12.30;78.70;;;;;;5027548;28;20084;-74
2021/12/16 03:16:47;;;;;;;12.93;11.18;;;12.20;78.50;;;;;;5029284;28;20025;-73
2021/12/16 03:19:25;;;;;;;13.23;11.27;;;12.20;78.50;;;;;;5030742;28;20511;-74
2021/12/16 03:21:56;;;;;;;13.38;11.98;;;12.20;78.50;;;;;;5028773;28;20388;-73
2021/12/16 03:34:55;;;;;;;13.30;11.82;;;12.20;78.50;;;;;;5028311;28;20416;-73
2021/12/16 03:37:27;;;;;;;14.07;12.57;;;12.20;78.50;;;;;;5029857;28;20120;-74
2021/12/16 03:40:10;;;;;;;15.05;12.23;;;12.20;78.50;;;;;;5033850;28;20498;-74
2021/12/16 03:42:46;;;;;;;15.45;12.98;;;12.20;78.50;;;;;;5032403;28;20045;-74
2021/12/16 03:48:36;;;;;;;12.65;11.30;;;12.20;78.50;;;;;;4991945;28;20062;-74
2021/12/16 03:51:16;;;;;;;13.38;11.43;;;12.20;78.50;;;;;;5029534;28;20034;-74
2021/12/16 03:53:47;;;;;;;14.70;12.65;;;12.20;78.50;;;;;;5032206;28;20038;-74
2021/12/16 03:56:18;;;;;;;14.63;11.63;;;12.20;78.50;;;;;;5032323;28;20034;-74
2021/12/16 03:59:03;;;;;;;13.30;11.75;;;12.20;78.50;;;;;;5032069;28;20025;-73
2021/12/16 04:01:39;;;;;;;12.00;10.75;;;12.20;78.50;;;;;;5032058;28;20025;-74
2021/12/16 04:04:05;;;;;;;17.90;12.13;;;12.10;78.40;;;;;;5031792;28;20049;-74
2021/12/16 04:06:34;;;;;;;12.93;11.27;;;12.20;78.60;;;;;;5032544;28;20037;-74
2021/12/16 04:09:11;;;;;;;12.13;10.93;;;12.10;78.40;;;;;;5032470;28;20397;-74
2021/12/16 04:11:55;;;;;;;13.55;11.18;;;12.10;78.50;;;;;;5031819;28;20048;-74
2021/12/16 04:14:22;;;;;;;14.32;12.88;;;12.10;78.40;;;;;;5031884;28;20044;-74
2021/12/16 04:16:53;;;;;;;13.90;10.65;;;12.10;78.40;;;;;;5032043;28;20026;-74
2021/12/16 04:19:28;;;;;;;13.68;11.57;;;12.10;78.90;;;;;;5032054;28;20032;-74
2021/12/16 04:22:11;;;;;;;12.18;10.75;;;12.10;78.40;;;;;;5032259;28;20497;-74
2021/12/16 04:24:39;;;;;;;12.50;10.23;;;12.20;78.60;;;;;;5015602;28;20044;-74
2021/12/16 04:27:08;;;;;;;13.70;11.63;;;12.20;78.50;;;;;;5031734;28;20056;-74
2021/12/16 04:29:36;;;;;;;12.70;11.40;;;12.10;78.40;;;;;;5031821;28;20095;-73
2021/12/16 04:32:05;;;;;;;12.63;11.25;;;12.10;78.40;;;;;;5031689;28;20041;-74
2021/12/16 04:34:31;;;;;;;12.32;11.02;;;12.10;78.40;;;;;;5032690;28;20375;-74
2021/12/16 04:37:00;;;;;;;13.13;11.38;;;12.10;78.40;;;;;;5032940;28;20029;-74
2021/12/16 04:39:29;;;;;;;16.05;12.50;;;12.10;78.40;;;;;;5033296;28;20033;-74
2021/12/16 04:41:56;;;;;;;11.73;10.52;;;12.10;78.40;;;;;;5032262;28;20053;-74
2021/12/16 04:44:25;;;;;;;12.75;11.27;;;12.10;78.40;;;;;;5031866;28;20041;-74
2021/12/16 04:46:53;;;;;;;12.10;10.20;;;12.10;78.40;;;;;;5031525;28;20218;-74
2021/12/16 04:49:20;;;;;;;11.70;10.38;;;12.10;78.40;;;;;;5030095;28;20037;-75
2021/12/16 04:51:51;;;;;;;12.23;10.68;;;12.10;78.50;;;;;;5031454;28;20025;-74
2021/12/16 04:54:23;;;;;;;13.07;11.10;;;12.10;78.50;;;;;;5015324;28;20076;-75
2021/12/16 04:56:52;;;;;;;12.40;11.13;;;12.10;78.50;;;;;;5031187;28;20393;-74
2021/12/16 04:59:20;;;;;;;15.20;11.65;;;12.00;78.30;;;;;;5031200;28;20063;-74
2021/12/16 05:01:53;;;;;;;11.23;10.02;;;12.00;78.30;;;;;;5031382;28;20492;-74
2021/12/16 05:04:31;;;;;;;12.63;11.25;;;12.00;78.30;;;;;;5030486;28;20101;-74
2021/12/16 05:06:57;;;;;;;15.43;10.80;;;12.00;78.30;;;;;;5030911;28;20500;-75
2021/12/16 05:12:14;;;;;;;11.68;10.48;;;12.00;78.30;;;;;;5030735;28;20148;-74
2021/12/16 05:14:42;;;;;;;11.88;9.52;;;12.00;78.30;;;;;;5030732;28;20254;-75
2021/12/16 05:17:22;;;;;;;12.88;10.43;;;12.10;78.40;;;;;;5031084;28;20377;-75
2021/12/16 05:19:51;;;;;;;12.48;10.70;;;12.00;78.30;;;;;;5030440;28;20029;-74
2021/12/16 05:25:07;;;;;;;12.13;10.82;;;12.00;78.20;;;;;;5030689;28;20030;-74
2021/12/16 05:27:33;;;;;;;11.70;10.48;;;12.00;78.30;;;;;;5030496;28;20125;-75
2021/12/16 05:30:00;;;;;;;13.13;9.77;;;12.00;78.20;;;;;;5030301;28;20097;-74
2021/12/16 05:32:27;;;;;;;13.82;10.55;;;12.00;78.30;;;;;;5030418;28;20037;-74
2021/12/16 05:34:53;;;;;;;11.02;9.80;;;12.00;78.30;;;;;;5030508;28;20033;-75
2021/12/16 05:37:20;;;;;;;11.90;10.10;;;12.00;78.30;;;;;;5031915;28;20033;-74
2021/12/16 05:39:47;;;;;;;12.13;10.43;;;12.00;78.30;;;;;;5030354;28;20030;-74
2021/12/16 05:42:37;;;;;;;12.48;10.63;;;12.00;78.30;;;;;;5030531;28;20284;-74
2021/12/16 05:45:06;;;;;;;11.20;10.07;;;12.00;78.30;;;;;;5030132;28;20108;-75
2021/12/16 05:47:32;;;;;;;10.98;9.80;;;12.00;78.30;;;;;;5028165;28;20115;-75
2021/12/16 05:49:58;;;;;;;10.52;9.43;;;11.90;78.10;;;;;;5026884;28;20096;-74
2021/12/16 05:52:24;;;;;;;11.73;10.43;;;11.90;78.20;;;;;;5028135;28;20069;-74
2021/12/16 05:54:52;;;;;;;11.68;10.48;;;11.90;78.20;;;;;;5027108;28;20168;-73
2021/12/16 05:57:25;;;;;;;10.90;9.20;;;11.90;78.20;;;;;;5026946;28;20439;-74
2021/12/16 05:59:59;;;;;;;10.82;9.73;;;11.90;78.20;;;;;;5026705;28;20603;-74
2021/12/16 06:02:26;;;;;;;10.85;9.02;;;11.90;78.20;;;;;;5024498;28;20033;-75
2021/12/16 06:04:52;;;;;;;11.02;9.30;;;11.90;78.20;;;;;;5024431;28;20156;-75
2021/12/16 06:07:20;;;;;;;11.10;9.65;;;11.90;78.70;;;;;;5025320;28;20025;-74
2021/12/16 06:09:47;;;;;;;11.45;9.77;;;12.00;78.30;;;;;;5024882;28;20033;-74
2021/12/16 06:12:14;;;;;;;11.20;8.95;;;12.00;78.30;;;;;;5026368;28;20366;-75
2021/12/16 06:14:59;;;;;;;11.25;9.90;;;12.00;78.30;;;;;;5008539;28;20033;-74
2021/12/16 06:28:19;;;;;;;9.70;8.70;;;11.90;78.00;;;;;;5024217;28;20302;-74
2021/12/16 06:30:45;;;;;;;9.85;8.88;;;11.90;78.00;;;;;;5025383;28;20025;-74
2021/12/16 06:33:16;;;;;;;8.48;7.63;;;11.90;78.00;;;;;;5024798;28;20126;-74
2021/12/16 06:35:42;;;;;;;12.23;9.07;;;12.00;78.30;;;;;;5024091;28;20026;-74
2021/12/16 06:38:09;;;;;;;10.88;9.77;;;11.90;78.70;;;;;;5024864;28;20037;-73
2021/12/16 06:40:53;;;;;;;10.27;9.20;;;12.00;78.40;;;;;;5025266;28;20074;-73
2021/12/16 06:43:38;;;;;;;10.00;8.23;;;12.00;78.40;;;;;;5024835;28;20057;-72
2021/12/16 06:46:05;;;;;;;9.23;8.25;;;12.00;78.40;;;;;;5025657;28;20041;-72
2021/12/16 06:48:35;;;;;;;9.70;8.70;;;12.00;78.40;;;;;;5024141;28;20065;-73
2021/12/16 06:51:08;;;;;;;8.85;7.95;;;12.00;78.40;;;;;;5024396;28;20029;-73
2021/12/16 06:53:52;;;;;;;10.55;8.45;;;12.00;78.40;;;;;;5025476;28;20136;-73
2021/12/16 06:56:30;;;;;;;9.90;8.90;;;12.00;78.40;;;;;;5025557;28;20080;-74
2021/12/16 06:59:11;;;;;;;11.40;9.43;;;12.00;78.30;;;;;;5026066;28;20443;-73
2021/12/16 07:01:40;;;;;;;11.27;9.52;;;12.00;78.30;;;;;;5025762;28;20041;-74
2021/12/16 07:04:10;;;;;;;10.20;8.57;;;12.00;78.30;;;;;;5023956;28;20045;-74
2021/12/16 07:06:38;;;;;;;8.82;7.93;;;12.00;78.30;;;;;;5026143;28;20037;-74
2021/12/16 07:09:17;;;;;;;8.38;7.47;;;12.00;78.30;;;;;;5025966;28;20668;-74
2021/12/16 07:11:48;;;;;;;10.70;8.73;;;12.00;78.30;;;;;;5026519;28;20100;-74
2021/12/16 07:14:17;;;;;;;9.35;7.93;;;12.00;78.20;;;;;;5029707;28;20037;-74
2021/12/16 07:16:48;;;;;;;10.30;9.30;;;12.00;78.30;;;;;;5029375;28;20393;-74
2021/12/16 07:19:14;;;;;;;8.70;7.78;;;12.00;78.30;;;;;;5028924;28;20036;-73
2021/12/16 07:21:42;;;;;;;8.88;7.97;;;12.00;78.20;;;;;;5029599;28;20029;-74
2021/12/16 07:24:11;;;;;;;8.60;7.72;;;12.00;78.30;;;;;;5028819;28;20029;-73
2021/12/16 07:26:38;;;;;;;8.43;7.63;;;12.00;78.20;;;;;;5028417;28;20390;-73
2021/12/16 07:29:05;;;;;;;9.57;8.63;;;12.00;78.20;;;;;;5028607;28;20037;-74
2021/12/16 07:31:32;;;;;;;9.40;8.50;;;12.00;78.30;;;;;;5027701;28;20026;-73
2021/12/16 07:34:00;;;;;;;8.45;7.63;;;12.00;78.30;;;;;;5027823;28;20393;-74
2021/12/16 07:36:27;;;;;;;8.20;7.40;;;12.00;78.30;;;;;;5028043;28;20663;-74
2021/12/16 07:38:54;;;;;;;8.32;7.53;;;12.00;78.30;;;;;;5028585;28;20477;-74
2021/12/16 07:41:25;;;;;;;8.52;7.55;;;12.00;78.30;;;;;;5028534;28;20432;-74
2021/12/16 07:43:58;;;;;;;8.40;7.55;;;12.00;78.30;;;;;;5025397;28;20448;-74
2021/12/16 07:46:25;;;;;;;10.32;8.07;;;12.00;78.20;;;;;;5020893;28;20116;-73
2021/12/16 07:48:52;;;;;;;9.35;8.35;;;12.00;78.20;;;;;;5027243;28;20036;-74
2021/12/16 07:51:18;;;;;;;8.98;8.07;;;12.00;78.20;;;;;;5027351;28;20068;-74
2021/12/16 07:53:44;;;;;;;9.85;8.65;;;12.00;78.20;;;;;;5028143;28;20034;-73
2021/12/16 07:56:10;;;;;;;9.02;8.02;;;12.00;78.20;;;;;;5027926;28;20520;-74
2021/12/16 07:58:37;;;;;;;9.13;7.85;;;12.00;78.20;;;;;;5028275;28;20257;-73
2021/12/16 08:01:04;;;;;;;9.38;8.05;;;12.00;78.20;;;;;;5028425;28;20262;-74
2021/12/16 08:03:37;;;;;;;10.88;8.32;;;12.00;78.20;;;;;;5026436;28;20136;-74
2021/12/16 08:06:05;;;;;;;;;;;12.00;78.10;;;;;;5027284;28;20120;-74
2021/12/16 08:08:33;;;;;;;9.18;7.70;;;12.00;78.10;;;;;;5028552;28;19909;-73
2021/12/16 08:10:59;;;;;;;8.77;7.75;;;12.00;78.00;;;;;;5028043;28;20033;-74
2021/12/16 08:13:25;;;;;;;10.35;7.97;;;12.00;78.00;;;;;;5026488;28;20511;-74
2021/12/16 08:15:52;;;;;;;8.45;7.25;;;12.00;78.00;;;;;;5017089;28;20112;-74
2021/12/16 08:18:18;;;;;;;9.50;8.07;;;12.00;78.00;;;;;;5020840;28;20029;-74
2021/12/16 08:20:44;;;;;;;8.07;7.30;;;12.00;78.00;;;;;;5027920;28;20575;-74
2021/12/16 08:23:10;;;;;;;8.80;7.78;;;12.00;78.00;;;;;;5027499;28;20489;-74
2021/12/16 08:25:38;;;;;;;9.23;7.55;;;12.00;78.00;;;;;;5026877;28;20489;-74
2021/12/16 08:28:05;;;;;;;8.77;7.88;;;12.00;78.00;;;;;;5025781;28;20044;-75
2021/12/16 08:30:35;;;;;;;8.27;7.40;;;12.00;78.00;;;;;;5021925;28;20469;-74
2021/12/16 08:33:06;;;;;;;8.93;8.00;;;12.00;78.00;;;;;;5017659;28;20136;-74
2021/12/16 08:35:32;;;;;;;11.82;8.38;;;12.00;78.00;;;;;;5026260;28;20110;-73
2021/12/16 08:37:59;;;;;;;8.82;7.90;;;12.00;77.90;;;;;;5027853;28;20072;-74
2021/12/16 08:40:25;;;;;;;9.38;7.63;;;12.00;77.90;;;;;;5027094;28;20421;-75
2021/12/16 08:42:52;;;;;;;9.05;7.38;;;12.10;78.10;;;;;;5026373;28;20172;-74
2021/12/16 08:45:23;;;;;;;9.57;7.53;;;12.00;77.90;;;;;;5027136;28;20033;-74
2021/12/16 08:47:49;;;;;;;12.80;6.93;;;12.00;77.90;;;;;;5025781;28;20408;-75
2021/12/16 08:50:19;;;;;;;7.70;6.72;;;12.10;78.00;;;;;;5027529;28;20056;-74
2021/12/16 08:52:45;;;;;;;9.52;8.27;;;12.10;78.00;;;;;;5027026;28;20045;-75
2021/12/16 08:55:12;;;;;;;9.25;7.68;;;12.10;77.90;;;;;;5026166;28;20068;-74
2021/12/16 08:57:39;;;;;;;9.32;7.57;;;12.10;77.90;;;;;;5026767;28;20037;-75
2021/12/16 09:00:09;;;;;;;9.23;8.32;;;12.10;77.80;;;;;;5027332;28;20568;-75
2021/12/16 09:02:35;;;;;;;8.40;7.03;;;12.20;78.00;;;;;;5025829;28;20040;-74
2021/12/16 09:05:01;;;;;;;8.13;7.32;;;12.20;77.90;;;;;;5026951;28;20049;-74
2021/12/16 09:07:27;;;;;;;10.13;8.15;;;12.20;77.90;;;;;;5027651;28;20033;-74
2021/12/16 09:09:54;;;;;;;8.23;7.43;;;12.20;77.90;;;;;;5025714;28;20029;-75
2021/12/16 09:14:58;;;;;;;7.25;6.40;;;12.20;77.80;;;;;;5027412;28;20025;-74
2021/12/16 09:17:24;;;;;;;8.48;7.65;;;12.20;77.80;;;;;;5027204;28;20059;-75
2021/12/16 09:19:53;;;;;;;7.85;7.05;;;12.20;77.80;;;;;;5025532;28;20025;-74
2021/12/16 09:22:20;;;;;;;8.02;7.22;;;12.20;77.70;;;;;;5026625;28;20033;-74
2021/12/16 09:24:49;;;;;;;7.90;7.13;;;12.20;77.70;;;;;;5027890;28;20888;-75
2021/12/16 09:27:16;;;;;;;9.82;7.68;;;12.30;77.80;;;;;;5025878;28;20076;-75
2021/12/16 09:29:43;;;;;;;7.47;6.70;;;12.30;77.80;;;;;;5026932;28;20433;-74
2021/12/16 09:32:09;;;;;;;8.27;7.45;;;12.30;78.30;;;;;;5026675;28;20473;-74
2021/12/16 09:34:37;;;;;;;7.72;6.97;;;12.30;77.70;;;;;;5026130;28;20040;-75
2021/12/16 09:37:04;;;;;;;8.40;7.03;;;12.30;77.70;;;;;;5026483;28;20087;-74
2021/12/16 09:39:31;;;;;;;7.22;6.43;;;12.30;77.60;;;;;;5025315;28;20038;-74
2021/12/16 09:41:58;;;;;;;7.43;6.72;;;12.40;77.80;;;;;;5010168;28;20077;-74
2021/12/16 09:44:26;;;;;;;9.57;7.20;;;12.40;77.70;;;;;;5027318;28;20030;-74
2021/12/16 09:46:55;;;;;;;8.15;6.90;;;12.40;77.70;;;;;;5026745;28;20068;-74
2021/12/16 09:49:21;;;;;;;8.23;7.18;;;12.50;77.80;;;;;;5026396;28;20501;-74
2021/12/16 09:51:50;;;;;;;7.35;6.65;;;12.50;77.70;;;;;;5026953;28;20106;-74
2021/12/16 09:54:23;;;;;;;7.13;6.40;;;12.50;77.60;;;;;;5026798;28;20133;-74
2021/12/16 09:56:50;;;;;;;;;;;12.50;77.50;;;;;;5026904;28;20026;-75
2021/12/16 09:59:17;;;;;;;7.93;6.72;;;12.60;77.70;;;;;;5026166;28;19916;-75
2021/12/16 10:01:47;;;;;;;9.02;7.60;;;12.60;77.50;;;;;;5025046;28;20040;-74
2021/12/16 10:04:19;;;;;;;9.85;6.20;;;12.60;77.50;;;;;;5008220;28;20118;-73
2021/12/16 10:06:48;;;;;;;7.35;6.63;;;12.60;77.50;;;;;;5026130;28;20493;-74
2021/12/16 10:09:14;;;;;;;7.88;6.47;;;12.70;78.10;;;;;;5024644;28;20164;-75
2021/12/16 10:11:44;;;;;;;7.72;6.55;;;12.70;77.50;;;;;;5014259;28;20044;-74
2021/12/16 10:19:28;;;;;;;8.18;6.63;;;12.80;77.50;;;;;;5024554;28;20037;-73
2021/12/16 10:22:13;;;;;;;7.40;6.18;;;12.80;77.40;;;;;;5024828;28;20036;-75
2021/12/16 10:24:39;;;;;;;9.10;7.78;;;12.80;77.40;;;;;;5007858;28;20479;-74
2021/12/16 10:27:10;;;;;;;8.27;7.07;;;12.90;77.50;;;;;;5025692;28;20040;-74
2021/12/16 10:29:39;;;;;;;8.82;6.53;;;12.90;77.40;;;;;;5025959;28;20095;-74
2021/12/16 10:32:25;;;;;;;6.75;6.15;;;12.90;77.40;;;;;;5026089;28;20480;-74
2021/12/16 10:34:59;;;;;;;7.13;6.18;;;13.00;77.40;;;;;;5025878;28;20092;-75
2021/12/16 10:37:35;;;;;;;7.80;6.72;;;13.00;77.30;;;;;;5025236;28;20064;-74
2021/12/16 10:40:26;;;;;;;7.57;6.07;;;13.00;77.30;;;;;;5024158;28;20072;-74
2021/12/16 10:42:52;;;;;;;8.23;6.25;;;13.10;77.30;;;;;;5024009;28;20048;-74
2021/12/16 10:45:49;;;;;;;8.27;6.30;;;13.10;77.20;;;;;;5024435;28;20029;-74
2021/12/16 10:48:30;;;;;;;9.82;7.10;;;13.20;77.30;;;;;;5025616;28;20033;-74
2021/12/16 10:51:05;;;;;;;8.63;7.35;;;13.20;77.20;;;;;;5029624;28;20131;-75
2021/12/16 10:54:08;;;;;;;7.18;6.47;;;13.30;77.20;;;;;;5029550;28;20061;-74
2021/12/16 10:56:39;;;;;;;6.43;5.80;;;13.30;77.10;;;;;;5027834;28;20095;-75
2021/12/16 10:59:16;;;;;;;6.95;6.25;;;13.40;77.10;;;;;;5029722;28;20032;-74
2021/12/16 11:01:47;;;;;;;6.53;5.82;;;13.40;77.00;;;;;;5027236;28;20109;-74
2021/12/16 11:04:15;;;;;;;7.82;6.35;;;13.40;76.90;;;;;;5029572;28;20037;-74
2021/12/16 11:06:46;;;;;;;6.82;6.15;;;13.50;77.00;;;;;;5027836;28;20056;-74
2021/12/16 11:09:59;;;;;;;7.20;5.78;;;13.50;76.90;;;;;;5029713;28;20048;-74
2021/12/16 11:12:30;;;;;;;6.63;5.93;;;13.50;76.70;;;;;;5027069;28;20508;-74
2021/12/16 11:15:03;;;;;;;6.65;5.97;;;13.60;76.80;;;;;;5028912;28;20619;-74
2021/12/16 11:17:36;;;;;;;6.25;5.65;;;13.60;76.70;;;;;;5021355;28;20026;-75
2021/12/16 11:20:14;;;;;;;6.78;6.00;;;13.70;76.80;;;;;;5029767;28;20038;-75
2021/12/16 11:22:40;;;;;;;8.68;6.70;;;13.70;76.60;;;;;;5029056;28;20088;-74
2021/12/16 11:25:21;;;;;;;7.55;6.40;;;13.70;76.60;;;;;;5029712;28;20069;-75
2021/12/16 11:28:05;;;;;;;7.22;6.53;;;13.80;76.60;;;;;;5028683;28;20049;-75
2021/12/16 11:30:56;;;;;;;8.27;7.47;;;13.90;76.70;;;;;;5028749;28;20033;-74
2021/12/16 11:33:28;;;;;;;8.20;6.03;;;13.90;76.50;;;;;;5027654;28;20068;-74
2021/12/16 11:36:04;;;;;;;;;;;14.00;76.60;;;;;;5028011;28;20037;-74
2021/12/16 11:38:48;;;;;;;7.82;6.68;;;14.00;76.50;;;;;;5028593;28;19917;-74
2021/12/16 11:41:32;;;;;;;5.78;5.00;;;14.00;76.40;;;;;;5029426;28;20049;-75
2021/12/16 11:44:29;;;;;;;7.00;6.28;;;14.10;76.50;;;;;;5027770;28;20052;-74
2021/12/16 11:46:58;;;;;;;6.28;4.82;;;14.10;76.30;;;;;;5011763;28;20033;-73
2021/12/16 11:49:33;;;;;;;5.32;4.20;;;14.20;76.70;;;;;;5029343;28;20041;-74
2021/12/16 11:52:19;;;;;;;5.70;4.85;;;14.20;76.90;;;;;;5027431;28;20552;-75
2021/12/16 11:54:53;;;;;;;5.60;4.53;;;14.40;77.20;;;;;;5026869;28;20107;-74
2021/12/16 11:57:37;;;;;;;4.95;4.45;;;14.50;77.20;;;;;;5028944;28;20377;-75
2021/12/16 12:00:09;;;;;;;6.10;4.80;;;14.50;77.10;;;;;;5026948;28;20041;-74
2021/12/16 12:02:39;;;;;;;5.70;4.93;;;14.60;77.10;;;;;;5019606;28;20050;-75
2021/12/16 12:05:17;;;;;;;5.43;4.93;;;14.60;77.00;;;;;;5028277;28;20042;-74
2021/12/16 12:07:49;;;;;;;5.30;4.75;;;14.60;76.90;;;;;;5027976;28;20037;-74
2021/12/16 12:10:23;;;;;;;5.80;5.20;;;14.60;76.80;;;;;;5044037;28;20033;-74
2021/12/16 12:12:50;;;;;;;4.85;4.43;;;14.60;76.70;;;;;;5028270;28;20403;-74
2021/12/16 12:15:18;;;;;;;6.70;4.80;;;14.60;76.60;;;;;;5027222;28;20604;-74
2021/12/16 12:17:52;;;;;;;4.95;4.15;;;14.70;76.70;;;;;;5028126;28;20409;-74
2021/12/16 12:20:25;;;;;;;4.97;4.07;;;14.70;76.60;;;;;;5028406;28;20039;-74
2021/12/16 12:22:51;;;;;;;;;;;14.70;76.50;;;;;;5011388;28;20099;-75
2021/12/16 12:25:18;;;;;;;6.22;5.20;;;14.80;76.70;;;;;;5028932;28;19921;-74
2021/12/16 12:27:44;;;;;;;5.05;4.55;;;14.80;76.60;;;;;;5028968;28;20128;-75
2021/12/16 12:30:11;;;;;;;6.28;5.40;;;14.80;76.50;;;;;;5028095;28;20491;-74
2021/12/16 12:32:40;;;;;;;5.03;4.45;;;14.80;76.40;;;;;;5009999;28;20041;-74
2021/12/16 12:35:23;;;;;;;8.63;5.57;;;14.80;76.40;;;;;;5026482;28;20062;-75
2021/12/16 12:37:56;;;;;;;7.18;5.30;;;14.80;76.20;;;;;;5027530;28;20120;-75
2021/12/16 12:40:27;;;;;;;6.07;5.25;;;14.80;76.10;;;;;;5026842;28;20600;-75
2021/12/16 12:42:56;;;;;;;7.88;5.65;;;14.90;76.20;;;;;;5027739;28;20034;-74
2021/12/16 12:45:26;;;;;;;5.88;5.22;;;14.90;76.10;;;;;;5028297;28;20539;-74
2021/12/16 12:47:55;;;;;;;5.32;4.82;;;14.80;75.80;;;;;;5027905;28;20067;-74
2021/12/16 12:50:29;;;;;;;6.50;5.53;;;14.90;75.90;;;;;;5027614;28;20029;-73
2021/12/16 12:52:59;;;;;;;6.30;5.30;;;14.90;75.80;;;;;;5027656;28;20103;-73
2021/12/16 12:55:32;;;;;;;7.78;6.93;;;14.90;75.70;;;;;;5027806;28;20052;-73
2021/12/16 12:58:11;;;;;;;6.45;4.95;;;14.90;75.60;;;;;;5026319;28;20075;-74
2021/12/16 13:00:54;;;;;;;5.75;5.15;;;14.90;75.50;;;;;;5026147;28;20564;-74
2021/12/16 13:03:34;;;;;;;6.47;4.95;;;14.90;75.50;;;;;;5026949;28;20044;-74
2021/12/16 13:06:04;;;;;;;6.75;6.05;;;14.90;75.30;;;;;;5027258;28;20033;-73
2021/12/16 13:08:37;;;;;;;6.43;5.70;;;14.90;75.30;;;;;;5027400;28;20477;-74
2021/12/16 13:11:15;;;;;;;7.00;6.10;;;14.90;75.30;;;;;;5026185;28;20045;-73
2021/12/16 13:14:14;;;;;;;7.40;6.10;;;14.90;75.40;;;;;;5026669;28;20041;-73
2021/12/16 13:28:14;;;;;;;6.53;5.90;;;14.90;75.00;;;;;;5027352;28;20029;-74
2021/12/16 13:30:52;;;;;;;6.72;6.03;;;14.90;75.00;;;;;;5009532;28;20025;-74
2021/12/16 13:33:25;;;;;;;7.03;5.93;;;14.90;75.00;;;;;;5026990;28;20050;-74
2021/12/16 13:36:02;;;;;;;7.15;6.45;;;14.90;74.80;;;;;;5025380;28;20029;-73
2021/12/16 13:38:38;;;;;;;7.10;6.40;;;14.80;74.60;;;;;;5024589;28;20026;-74
2021/12/16 13:41:34;;;;;;;8.18;6.50;;;14.80;74.60;;;;;;5026526;28;20033;-74
2021/12/16 13:44:08;;;;;;;6.45;5.70;;;14.80;74.50;;;;;;5017743;28;20053;-74
2021/12/16 13:47:04;;;;;;;8.60;7.00;;;14.80;74.60;;;;;;5018195;28;20347;-75
2021/12/16 13:58:28;;;;;;;8.90;7.05;;;14.80;74.50;;;;;;5026316;28;20057;-75
2021/12/16 14:06:57;;;;;;;7.25;6.55;;;14.70;74.30;;;;;;5024988;28;20037;-75
2021/12/16 14:09:30;;;;;;;7.97;7.07;;;14.70;74.10;;;;;;5024533;28;20083;-74
2021/12/16 14:47:16;;;;;;;9.25;7.50;;;14.40;73.90;;;;;;5025463;28;20029;-74
2021/12/16 14:49:45;;;;;;;7.20;6.50;;;14.40;73.90;;;;;;5025629;28;20034;-74
2021/12/16 14:52:25;;;;;;;9.68;8.07;;;14.30;73.80;;;;;;5025321;28;20544;-74
2021/12/16 14:54:54;;;;;;;9.70;7.70;;;14.30;73.80;;;;;;5024988;28;20100;-74
2021/12/16 14:57:26;;;;;;;7.60;6.90;;;14.30;73.90;;;;;;5025772;28;20367;-74
2021/12/16 14:59:53;;;;;;;8.55;7.50;;;14.30;73.90;;;;;;5007577;28;20033;-75
2021/12/16 15:02:24;;;;;;;8.05;7.25;;;14.20;73.80;;;;;;5024058;28;20393;-74
2021/12/16 15:04:50;;;;;;;9.77;8.00;;;14.20;73.80;;;;;;5025458;28;20073;-74
2021/12/16 15:07:17;;;;;;;8.85;7.95;;;14.20;73.80;;;;;;5025828;28;20033;-74
2021/12/16 15:09:44;;;;;;;7.93;7.13;;;14.20;73.90;;;;;;5019805;28;20034;-75
2021/12/16 15:12:51;;;;;;;9.30;8.40;;;14.20;73.90;;;;;;5017863;28;20084;-75
2021/12/16 15:39:52;;;;;;;9.30;7.78;;;14.00;74.00;;;;;;5028519;28;20029;-75
2021/12/16 15:45:13;;;;;;;9.70;8.63;;;13.90;73.90;;;;;;5029001;28;20033;-75
2021/12/16 15:47:45;;;;;;;8.98;8.07;;;13.80;73.70;;;;;;5026722;28;20033;-75
2021/12/16 15:50:13;;;;;;;9.10;7.68;;;13.80;73.80;;;;;;5028682;28;20029;-74
2021/12/16 15:52:41;;;;;;;8.50;7.55;;;13.80;73.80;;;;;;5027459;28;20059;-75
2021/12/16 15:55:14;;;;;;;10.70;9.60;;;13.70;73.60;;;;;;5029029;28;20113;-73
2021/12/16 15:57:41;;;;;;;;;;;13.70;73.70;;;;;;5028374;28;20075;-75
2021/12/16 16:00:15;;;;;;;9.80;8.85;;;13.70;73.80;;;;;;5028513;28;19986;-75
2021/12/16 16:02:41;;;;;;;9.70;8.50;;;13.60;73.60;;;;;;5028818;28;20385;-74
2021/12/16 16:05:09;;;;;;;8.60;7.70;;;13.60;73.70;;;;;;5028310;28;20073;-74
2021/12/16 16:07:37;;;;;;;9.48;8.23;;;13.60;73.80;;;;;;5027580;28;20527;-75
2021/12/16 16:10:06;;;;;;;8.60;7.70;;;13.50;73.70;;;;;;5027846;28;20073;-74
2021/12/16 16:12:33;;;;;;;10.13;8.23;;;13.50;73.70;;;;;;5026659;28;20091;-74
2021/12/16 16:15:20;;;;;;;9.30;8.40;;;13.50;73.70;;;;;;5027633;28;20416;-73
2021/12/16 16:18:00;;;;;;;10.98;9.82;;;13.40;73.60;;;;;;5027635;28;20029;-73
2021/12/16 16:20:33;;;;;;;10.63;8.90;;;13.40;73.60;;;;;;5026754;28;20038;-76
2021/12/16 16:23:03;;;;;;;;;;;13.40;73.70;;;;;;5028088;28;20084;-73
2021/12/16 16:25:29;;;;;;;10.57;8.45;;;13.40;73.70;;;;;;5028248;28;19919;-73
2021/12/16 16:27:57;;;;;;;10.35;8.75;;;13.40;73.70;;;;;;5028267;28;20041;-75
2021/12/16 16:30:24;;;;;;;10.23;8.77;;;13.30;73.60;;;;;;5027897;28;20034;-76
2021/12/16 16:33:04;;;;;;;8.88;8.02;;;13.30;73.60;;;;;;5027712;28;20657;-74
2021/12/16 16:35:31;;;;;;;9.57;8.57;;;13.30;73.60;;;;;;5028265;28;20120;-74
2021/12/16 16:38:21;;;;;;;8.35;7.55;;;13.30;73.70;;;;;;5027752;28;20033;-75
2021/12/16 16:40:51;;;;;;;9.60;8.55;;;13.20;73.50;;;;;;5027485;28;20057;-75
2021/12/16 16:43:18;;;;;;;10.52;9.35;;;13.20;73.60;;;;;;5027805;28;20064;-76
2021/12/16 16:45:47;;;;;;;10.68;9.57;;;13.20;73.70;;;;;;5028092;28;20036;-74
2021/12/16 16:48:30;;;;;;;10.77;9.68;;;13.10;73.50;;;;;;5027419;28;20035;-75
2021/12/16 16:51:05;;;;;;;10.40;9.40;;;13.10;73.50;;;;;;5026683;28;20057;-75
2021/12/16 16:53:31;;;;;;;10.18;9.13;;;13.10;73.60;;;;;;5026719;28;20057;-75
2021/12/16 16:55:58;;;;;;;8.75;7.88;;;13.10;73.60;;;;;;5026373;28;20271;-75
2021/12/16 16:58:24;;;;;;;10.15;9.15;;;13.10;73.70;;;;;;5027315;28;20451;-75
2021/12/16 17:00:50;;;;;;;9.93;8.93;;;13.00;73.50;;;;;;5027785;28;20037;-74